Time;durP1;ratioP1;P1;durP2;ratioP2;P2;SDS_P1;SDS_P2;PMS_P1;PMS_P2;Temp;Humidity;BMP_temperature;BMP_pressure;BME280_temperature;BME280_humidity;BME280_pressure;Samples;Min_cycle;Max_cycle;Signal;HPM_P1;HPM_P2
2021/01/31 00:02:01;;;;;;;31.60;18.60;;;22.20;27.20;;;;;;6184639;27;83651;-62
2021/01/31 00:05:01;;;;;;;34.72;18.70;;;22.20;27.20;;;;;;6168121;28;83603;-62
2021/01/31 00:08:02;;;;;;;33.30;19.08;;;22.20;27.20;;;;;;6165306;28;83211;-62
2021/01/31 00:11:02;;;;;;;33.75;18.85;;;22.20;27.20;;;;;;6174497;28;83204;-61
2021/01/31 00:14:03;;;;;;;37.38;18.50;;;22.20;27.20;;;;;;6181880;27;84381;-61
2021/01/31 00:17:03;;;;;;;32.92;17.83;;;22.20;27.20;;;;;;6169296;28;83131;-61
2021/01/31 00:20:04;;;;;;;30.42;18.77;;;22.20;27.50;;;;;;6164154;28;83418;-61
2021/01/31 00:23:04;;;;;;;35.10;19.08;;;22.10;27.30;;;;;;6148169;28;83614;-61
2021/01/31 00:26:05;;;;;;;38.30;18.77;;;22.10;27.30;;;;;;6150541;28;83221;-61
2021/01/31 00:29:06;;;;;;;33.80;18.40;;;22.10;27.40;;;;;;6147583;28;83573;-61
2021/01/31 00:32:06;;;;;;;29.48;18.58;;;22.10;27.40;;;;;;6148308;28;82983;-61
2021/01/31 00:35:07;;;;;;;30.17;17.40;;;22.10;27.20;;;;;;6152692;28;84947;-61
2021/01/31 00:38:07;;;;;;;31.15;17.58;;;22.10;27.30;;;;;;6156130;28;83378;-61
2021/01/31 00:41:08;;;;;;;31.88;17.52;;;22.10;27.50;;;;;;6163802;27;84243;-61
2021/01/31 00:44:08;;;;;;;32.60;18.20;;;22.10;27.30;;;;;;6154404;28;83945;-61
2021/01/31 00:47:09;;;;;;;33.90;18.33;;;22.10;27.30;;;;;;6165133;27;83702;-61
2021/01/31 00:50:09;;;;;;;34.95;19.23;;;22.10;27.40;;;;;;6152992;28;85844;-61
2021/01/31 00:53:10;;;;;;;32.60;18.33;;;22.10;27.40;;;;;;6154037;28;82944;-61
2021/01/31 00:56:14;;;;;;;31.15;17.48;;;22.00;27.50;;;;;;6161162;28;85431;-61
2021/01/31 00:59:18;;;;;;;31.98;19.13;;;22.00;27.40;;;;;;6166445;28;85628;-60
2021/01/31 01:02:19;;;;;;;32.10;18.02;;;22.00;27.50;;;;;;6174429;28;84753;-61
2021/01/31 01:05:20;;;;;;;33.83;18.38;;;22.00;27.30;;;;;;6170140;27;83634;-61
2021/01/31 01:08:20;;;;;;;30.63;18.67;;;22.00;27.30;;;;;;6155671;28;84218;-61
2021/01/31 01:11:21;;;;;;;30.10;17.95;;;22.00;27.40;;;;;;6144860;27;83752;-63
2021/01/31 01:14:21;;;;;;;33.17;18.85;;;22.00;27.40;;;;;;6149940;28;83324;-63
2021/01/31 01:17:22;;;;;;;35.42;18.15;;;22.00;27.40;;;;;;6152038;28;84224;-63
2021/01/31 01:20:23;;;;;;;32.25;17.88;;;22.00;27.30;;;;;;6160630;28;83308;-63
2021/01/31 01:23:23;;;;;;;32.95;19.67;;;22.00;27.30;;;;;;6174767;28;83841;-63
2021/01/31 01:26:24;;;;;;;33.20;18.40;;;22.00;27.30;;;;;;6166080;27;83498;-63
2021/01/31 01:29:24;;;;;;;33.78;18.00;;;21.90;27.10;;;;;;6150548;28;83614;-61
2021/01/31 01:32:25;;;;;;;35.60;19.05;;;21.90;27.30;;;;;;6162434;27;86721;-61
2021/01/31 01:35:25;;;;;;;31.95;17.77;;;21.90;27.30;;;;;;6173578;28;83602;-62
2021/01/31 01:38:26;;;;;;;34.35;18.52;;;21.90;27.20;;;;;;6147500;28;83827;-61
2021/01/31 01:41:26;;;;;;;31.60;17.92;;;21.90;27.30;;;;;;6157998;28;84168;-61
2021/01/31 01:44:27;;;;;;;32.42;17.60;;;21.90;27.40;;;;;;6182124;28;85788;-61
2021/01/31 01:47:27;;;;;;;33.13;18.40;;;21.90;27.30;;;;;;6138132;28;84085;-61
2021/01/31 01:50:28;;;;;;;35.45;18.33;;;21.90;27.40;;;;;;6174901;28;83811;-61
2021/01/31 01:53:28;;;;;;;29.65;18.00;;;21.90;27.50;;;;;;6146449;27;83415;-61
2021/01/31 01:56:29;;;;;;;30.85;17.10;;;21.90;27.40;;;;;;6163759;28;84089;-61
2021/01/31 01:59:30;;;;;;;33.08;18.05;;;21.80;27.40;;;;;;6149748;28;87611;-62
2021/01/31 02:02:30;;;;;;;31.23;17.88;;;21.80;27.40;;;;;;6155756;28;82947;-60
2021/01/31 02:05:31;;;;;;;32.33;17.33;;;21.80;27.50;;;;;;6163542;27;83385;-62
2021/01/31 02:08:32;;;;;;;33.45;15.75;;;21.80;27.40;;;;;;6148901;28;83488;-62
2021/01/31 02:11:32;;;;;;;28.98;15.52;;;21.80;27.40;;;;;;6144011;28;83269;-61
2021/01/31 02:14:33;;;;;;;29.92;16.65;;;21.80;27.50;;;;;;6147211;28;83282;-61
2021/01/31 02:17:33;;;;;;;27.55;15.52;;;21.80;27.40;;;;;;6150849;28;83096;-61
2021/01/31 02:20:34;;;;;;;26.77;14.73;;;21.80;27.40;;;;;;6145169;28;83747;-62
2021/01/31 02:23:35;;;;;;;27.27;13.73;;;21.80;27.70;;;;;;6173489;28;83996;-62
2021/01/31 02:26:35;;;;;;;25.83;14.93;;;21.80;27.50;;;;;;6154382;28;84183;-62
2021/01/31 02:29:36;;;;;;;23.23;13.43;;;21.80;27.40;;;;;;6145922;28;84171;-62
2021/01/31 02:32:36;;;;;;;22.35;12.90;;;21.80;27.50;;;;;;6162089;27;84380;-62
2021/01/31 02:35:37;;;;;;;25.17;13.35;;;21.80;27.70;;;;;;6142938;27;83315;-62
2021/01/31 02:38:37;;;;;;;23.30;12.65;;;21.80;27.70;;;;;;6148583;28;83097;-62
2021/01/31 02:41:38;;;;;;;24.83;12.48;;;21.80;27.80;;;;;;6147519;27;84082;-61
2021/01/31 02:44:39;;;;;;;19.67;11.18;;;21.70;27.40;;;;;;6149621;28;83367;-61
2021/01/31 02:47:39;;;;;;;19.10;11.43;;;21.80;27.70;;;;;;6148855;28;83476;-64
2021/01/31 02:50:40;;;;;;;20.45;11.57;;;21.80;27.50;;;;;;6150852;28;87208;-60
2021/01/31 02:53:40;;;;;;;18.98;9.77;;;21.80;27.40;;;;;;6176014;28;83743;-60
2021/01/31 02:56:41;;;;;;;17.13;10.18;;;21.80;27.50;;;;;;6159073;28;83974;-61
2021/01/31 02:59:41;;;;;;;16.95;8.98;;;21.80;27.30;;;;;;6160826;28;83562;-63
2021/01/31 03:02:42;;;;;;;15.80;8.93;;;21.80;27.30;;;;;;6161260;28;83194;-62
2021/01/31 03:05:42;;;;;;;18.02;8.73;;;21.80;27.30;;;;;;6164510;27;80256;-62
2021/01/31 03:08:43;;;;;;;13.52;7.93;;;21.80;27.60;;;;;;6159233;28;80803;-62
2021/01/31 03:11:43;;;;;;;15.13;7.88;;;21.80;27.50;;;;;;6151508;28;83445;-62
2021/01/31 03:14:44;;;;;;;16.95;9.25;;;21.70;27.40;;;;;;6159374;28;81146;-62
2021/01/31 03:17:44;;;;;;;12.23;7.32;;;21.70;27.50;;;;;;6170609;27;80572;-62
2021/01/31 03:20:45;;;;;;;13.20;7.25;;;21.70;27.40;;;;;;6160150;28;81422;-62
2021/01/31 03:23:49;;;;;;;12.25;6.78;;;21.70;27.40;;;;;;6165396;27;80749;-62
2021/01/31 03:26:50;;;;;;;13.95;7.65;;;21.70;27.50;;;;;;6148221;28;80868;-62
2021/01/31 03:29:50;;;;;;;13.23;6.72;;;21.70;27.40;;;;;;6162009;28;80355;-62
2021/01/31 03:32:51;;;;;;;12.88;7.45;;;21.70;27.40;;;;;;6166869;28;81613;-62
2021/01/31 03:35:51;;;;;;;16.40;6.90;;;21.70;27.40;;;;;;6150948;28;80816;-62
2021/01/31 03:38:55;;;;;;;11.77;6.40;;;21.70;27.40;;;;;;6160856;28;80514;-64
2021/01/31 03:41:56;;;;;;;12.45;6.80;;;21.70;27.50;;;;;;6154230;27;81528;-62
2021/01/31 03:44:56;;;;;;;10.18;6.22;;;21.70;27.50;;;;;;6157974;28;81393;-62
2021/01/31 03:47:57;;;;;;;11.65;5.85;;;21.70;27.40;;;;;;6151735;27;80423;-63
2021/01/31 03:50:57;;;;;;;11.13;6.05;;;21.70;27.40;;;;;;6155437;28;81680;-62
2021/01/31 03:53:58;;;;;;;8.10;4.85;;;21.70;27.40;;;;;;6174533;27;81560;-62
2021/01/31 03:56:58;;;;;;;10.13;5.55;;;21.60;27.10;;;;;;6172585;28;80979;-63
2021/01/31 03:59:59;;;;;;;10.75;5.68;;;21.60;27.40;;;;;;6172108;27;80973;-62
2021/01/31 04:02:59;;;;;;;10.70;6.32;;;21.60;27.50;;;;;;6171729;28;80806;-62
2021/01/31 04:06:00;;;;;;;11.55;5.50;;;21.60;27.40;;;;;;6171819;28;81500;-62
2021/01/31 04:09:02;;;;;;;9.38;5.47;;;21.60;27.40;;;;;;6169659;27;80730;-64
2021/01/31 04:12:02;;;;;;;11.57;5.32;;;21.60;27.30;;;;;;6149013;28;82463;-62
2021/01/31 04:15:03;;;;;;;10.13;5.63;;;21.60;27.30;;;;;;6154556;27;80971;-63
2021/01/31 04:18:04;;;;;;;9.27;5.22;;;21.60;27.50;;;;;;6155479;28;81576;-62
2021/01/31 04:21:05;;;;;;;10.45;5.28;;;21.60;27.40;;;;;;6156305;28;80395;-62
2021/01/31 04:24:05;;;;;;;7.72;4.72;;;21.60;27.30;;;;;;6161919;28;80635;-61
2021/01/31 04:27:06;;;;;;;7.75;4.75;;;21.60;27.20;;;;;;6144836;27;81164;-61
2021/01/31 04:30:06;;;;;;;11.85;5.95;;;21.60;27.20;;;;;;6153895;28;81490;-63
2021/01/31 04:33:07;;;;;;;10.13;5.30;;;21.60;27.20;;;;;;6167818;27;80451;-63
2021/01/31 04:36:07;;;;;;;7.75;4.78;;;21.60;27.10;;;;;;6178709;27;81689;-64
2021/01/31 04:39:08;;;;;;;9.90;4.88;;;21.60;27.20;;;;;;6165752;28;80771;-62
2021/01/31 04:42:09;;;;;;;8.30;5.32;;;21.60;27.10;;;;;;6150441;28;80964;-62
2021/01/31 04:45:09;;;;;;;9.63;5.18;;;21.60;27.10;;;;;;6155373;28;81496;-63
2021/01/31 04:48:10;;;;;;;9.23;4.88;;;21.60;27.10;;;;;;6149162;28;80278;-62
2021/01/31 04:51:10;;;;;;;9.80;4.93;;;21.60;27.10;;;;;;6184639;27;81989;-63
2021/01/31 04:54:11;;;;;;;9.85;5.45;;;21.60;27.10;;;;;;6153462;28;80847;-62
2021/01/31 04:57:12;;;;;;;8.75;4.93;;;21.60;27.10;;;;;;6162000;27;82795;-62
2021/01/31 05:00:12;;;;;;;9.98;5.10;;;21.60;27.10;;;;;;6160445;27;80426;-62
2021/01/31 05:03:13;;;;;;;8.57;4.78;;;21.60;27.20;;;;;;6162863;27;81685;-64
2021/01/31 05:06:13;;;;;;;8.63;4.97;;;21.50;26.90;;;;;;6167777;28;80503;-62
2021/01/31 05:09:14;;;;;;;8.77;4.70;;;21.50;26.90;;;;;;6165252;27;80570;-62
2021/01/31 05:12:14;;;;;;;10.60;5.47;;;21.50;27.00;;;;;;6161479;28;81526;-62
2021/01/31 05:15:15;;;;;;;8.57;4.60;;;21.60;27.00;;;;;;6157466;27;80731;-63
2021/01/31 05:18:16;;;;;;;10.02;4.75;;;21.50;27.00;;;;;;6154573;28;81285;-63
2021/01/31 05:21:16;;;;;;;8.23;4.57;;;21.50;27.70;;;;;;6164861;28;81174;-62
2021/01/31 05:24:17;;;;;;;8.77;4.78;;;21.50;28.90;;;;;;6171824;28;81013;-63
2021/01/31 05:28:38;;;;;;;11.10;4.53;;;21.60;29.20;;;;;;6182316;27;76248;-63
2021/01/31 05:31:39;;;;;;;9.82;4.55;;;21.70;30.60;;;;;;6198278;27;81529;-64
2021/01/31 05:34:40;;;;;;;9.70;4.78;;;21.80;29.60;;;;;;6199073;27;83723;-64
2021/01/31 05:37:40;;;;;;;9.15;4.85;;;21.80;29.10;;;;;;6171330;27;80617;-63
2021/01/31 05:40:41;;;;;;;9.00;4.85;;;21.80;29.20;;;;;;6172112;28;85768;-63
2021/01/31 05:43:41;;;;;;;8.15;4.70;;;21.90;30.00;;;;;;6195462;27;81494;-63
2021/01/31 05:46:42;;;;;;;9.63;5.20;;;22.00;30.50;;;;;;6174730;27;80611;-64
2021/01/31 05:49:42;;;;;;;9.90;4.13;;;22.00;30.60;;;;;;6195623;27;80425;-64
2021/01/31 05:52:43;;;;;;;8.50;5.05;;;22.00;30.80;;;;;;6196851;27;81778;-62
2021/01/31 05:55:43;;;;;;;7.10;4.20;;;22.10;31.00;;;;;;6182855;27;81094;-62
2021/01/31 05:58:44;;;;;;;7.43;4.32;;;22.10;31.20;;;;;;6157157;27;81631;-62
2021/01/31 06:01:44;;;;;;;10.43;4.13;;;22.10;31.20;;;;;;6170460;28;80764;-62
2021/01/31 06:04:45;;;;;;;7.43;4.10;;;22.20;31.40;;;;;;6174831;27;81514;-64
2021/01/31 06:07:45;;;;;;;6.40;3.90;;;22.20;31.60;;;;;;6147112;28;84905;-63
2021/01/31 06:10:46;;;;;;;9.02;3.85;;;22.30;31.80;;;;;;6170875;27;80514;-64
2021/01/31 06:13:46;;;;;;;11.18;4.10;;;22.30;31.70;;;;;;6167878;27;80611;-63
2021/01/31 06:16:47;;;;;;;7.68;4.10;;;22.30;31.60;;;;;;6166281;28;81590;-62
2021/01/31 06:19:47;;;;;;;8.88;4.50;;;22.30;31.60;;;;;;6170860;28;80584;-63
2021/01/31 06:22:48;;;;;;;9.57;4.47;;;22.30;32.10;;;;;;6172281;27;80671;-63
2021/01/31 06:25:48;;;;;;;8.80;4.40;;;22.30;32.40;;;;;;6171191;28;83236;-63
2021/01/31 06:28:49;;;;;;;10.88;4.95;;;22.30;32.80;;;;;;6165236;27;83195;-62
2021/01/31 06:31:49;;;;;;;8.13;5.15;;;22.30;32.90;;;;;;6197230;27;81401;-63
2021/01/31 06:34:50;;;;;;;5.78;3.75;;;22.30;32.90;;;;;;6165986;27;81752;-67
2021/01/31 06:37:50;;;;;;;7.93;4.05;;;22.30;33.00;;;;;;6165423;28;80554;-63
2021/01/31 06:40:51;;;;;;;9.93;4.88;;;22.40;32.90;;;;;;6178933;28;80424;-62
2021/01/31 06:43:51;;;;;;;9.95;5.00;;;22.30;32.70;;;;;;6158124;27;80801;-62
2021/01/31 06:46:52;;;;;;;9.88;4.18;;;22.40;32.00;;;;;;6162771;28;80689;-62
2021/01/31 06:49:53;;;;;;;8.60;4.65;;;22.50;30.90;;;;;;6151023;27;80974;-61
2021/01/31 06:52:53;;;;;;;8.02;4.20;;;22.50;30.40;;;;;;6156516;27;80697;-63
2021/01/31 06:55:54;;;;;;;7.72;4.40;;;22.50;29.90;;;;;;6179849;27;81872;-62
2021/01/31 06:58:54;;;;;;;8.10;4.57;;;22.50;29.40;;;;;;6175525;27;80912;-63
2021/01/31 07:01:55;;;;;;;7.18;4.05;;;22.60;28.70;;;;;;6174586;28;80893;-63
2021/01/31 07:04:55;;;;;;;11.75;3.97;;;22.50;28.50;;;;;;6152857;27;80504;-63
2021/01/31 07:07:56;;;;;;;9.07;4.05;;;22.50;28.30;;;;;;6145331;27;82781;-64
2021/01/31 07:10:57;;;;;;;7.78;4.22;;;22.50;27.80;;;;;;6153607;27;81480;-66
2021/01/31 07:13:57;;;;;;;7.57;3.78;;;22.50;27.50;;;;;;6156592;27;80736;-62
2021/01/31 07:16:58;;;;;;;7.45;4.05;;;22.50;26.90;;;;;;6145315;27;80546;-64
2021/01/31 07:19:58;;;;;;;7.57;4.18;;;22.50;27.80;;;;;;6156503;28;84250;-65
2021/01/31 07:22:59;;;;;;;6.82;4.00;;;22.50;27.00;;;;;;6148767;27;80750;-64
2021/01/31 07:25:59;;;;;;;6.13;3.92;;;22.60;26.70;;;;;;6152727;28;81085;-64
2021/01/31 07:29:00;;;;;;;9.35;5.32;;;22.60;26.60;;;;;;6153280;27;80989;-63
2021/01/31 07:32:00;;;;;;;10.75;6.63;;;22.60;26.10;;;;;;6151819;28;80970;-65
2021/01/31 07:35:01;;;;;;;10.70;6.10;;;22.60;26.00;;;;;;6149614;28;80786;-64
2021/01/31 07:38:02;;;;;;;13.23;6.97;;;22.60;26.20;;;;;;6152557;27;80740;-65
2021/01/31 07:41:02;;;;;;;11.80;6.88;;;22.60;26.00;;;;;;6152351;28;80882;-65
2021/01/31 07:44:03;;;;;;;12.80;7.60;;;22.60;25.50;;;;;;6154443;27;81486;-64
2021/01/31 07:47:03;;;;;;;11.93;6.75;;;22.60;25.60;;;;;;6147957;28;80884;-62
2021/01/31 07:50:04;;;;;;;11.45;6.53;;;22.70;25.40;;;;;;6144964;27;81554;-62
2021/01/31 07:53:04;;;;;;;13.73;7.13;;;22.70;25.50;;;;;;6154803;27;80853;-63
2021/01/31 07:56:05;;;;;;;10.40;6.03;;;22.70;25.10;;;;;;6153258;28;80619;-63
2021/01/31 07:59:05;;;;;;;13.02;6.30;;;22.70;25.10;;;;;;6136574;27;80481;-64
2021/01/31 08:02:06;;;;;;;9.77;6.30;;;22.80;25.00;;;;;;6152313;28;80415;-62
2021/01/31 08:05:07;;;;;;;12.70;7.03;;;22.80;24.60;;;;;;6150574;27;81397;-63
2021/01/31 08:08:07;;;;;;;11.45;6.30;;;22.70;24.60;;;;;;6147668;27;80572;-64
2021/01/31 08:11:08;;;;;;;9.60;5.75;;;22.70;25.10;;;;;;6151249;28;87751;-62
2021/01/31 08:14:09;;;;;;;10.70;5.90;;;22.80;25.60;;;;;;6177299;27;80644;-63
2021/01/31 08:17:09;;;;;;;18.92;6.30;;;22.80;25.80;;;;;;6145684;28;80718;-65
2021/01/31 08:20:10;;;;;;;22.33;6.72;;;22.80;25.90;;;;;;6149253;28;81408;-62
2021/01/31 08:23:11;;;;;;;15.68;5.95;;;22.80;26.00;;;;;;6151397;28;80836;-63
2021/01/31 08:26:11;;;;;;;12.35;6.25;;;22.80;26.00;;;;;;6151201;27;80568;-66
2021/01/31 08:29:12;;;;;;;17.58;6.13;;;22.90;26.50;;;;;;6158651;27;80672;-66
2021/01/31 08:32:15;;;;;;;14.38;6.03;;;22.90;26.60;;;;;;6164735;27;83413;-62
2021/01/31 08:35:16;;;;;;;9.93;4.93;;;23.00;26.30;;;;;;6151348;28;80865;-62
2021/01/31 08:38:16;;;;;;;12.23;5.30;;;22.90;27.10;;;;;;6150669;27;80854;-63
2021/01/31 08:41:17;;;;;;;9.20;5.03;;;22.90;26.30;;;;;;6150819;28;81302;-64
2021/01/31 08:44:17;;;;;;;11.23;5.65;;;22.90;26.30;;;;;;6159510;27;83020;-64
2021/01/31 08:47:18;;;;;;;10.98;4.55;;;22.90;26.40;;;;;;6151847;28;82873;-66
2021/01/31 08:50:19;;;;;;;10.07;5.03;;;22.90;26.50;;;;;;6150290;27;80590;-63
2021/01/31 08:53:19;;;;;;;8.95;5.70;;;23.00;26.40;;;;;;6155766;27;80670;-64
2021/01/31 08:56:20;;;;;;;15.27;5.18;;;23.00;26.40;;;;;;6152625;28;81893;-62
2021/01/31 08:59:20;;;;;;;9.80;4.93;;;23.00;26.20;;;;;;6152444;28;84092;-64
2021/01/31 09:02:21;;;;;;;13.88;6.70;;;23.00;27.70;;;;;;6155256;28;80621;-64
2021/01/31 09:05:22;;;;;;;11.15;5.72;;;23.10;27.60;;;;;;6173528;27;80780;-63
2021/01/31 09:08:22;;;;;;;12.18;6.10;;;23.10;28.10;;;;;;6176681;27;80625;-64
2021/01/31 09:11:23;;;;;;;13.38;6.25;;;23.10;28.40;;;;;;6167009;27;81005;-65
2021/01/31 09:14:23;;;;;;;15.25;6.70;;;23.20;28.30;;;;;;6153446;27;81885;-65
2021/01/31 09:17:24;;;;;;;15.68;6.07;;;23.10;29.20;;;;;;6156971;27;80507;-62
2021/01/31 09:20:25;;;;;;;11.48;6.22;;;23.20;29.40;;;;;;6152786;28;80755;-65
2021/01/31 09:23:26;;;;;;;16.20;6.55;;;23.20;29.40;;;;;;6152715;27;80290;-61
2021/01/31 09:26:26;;;;;;;17.65;6.93;;;23.20;29.70;;;;;;6154518;28;83447;-61
2021/01/31 09:29:27;;;;;;;10.40;5.68;;;23.20;29.50;;;;;;6154282;28;80966;-62
2021/01/31 09:32:28;;;;;;;11.38;6.43;;;23.20;29.40;;;;;;6154316;27;81453;-62
2021/01/31 09:35:28;;;;;;;14.20;5.68;;;23.20;30.00;;;;;;6144073;28;81118;-61
2021/01/31 09:38:30;;;;;;;12.20;5.53;;;23.20;28.90;;;;;;6149589;28;80905;-62
2021/01/31 09:41:31;;;;;;;15.35;6.05;;;23.20;28.80;;;;;;6147336;27;81141;-62
2021/01/31 09:44:31;;;;;;;12.70;6.32;;;23.20;29.20;;;;;;6153058;27;80657;-65
2021/01/31 09:47:32;;;;;;;7.45;4.78;;;23.30;28.60;;;;;;6169726;27;81467;-64
2021/01/31 09:50:32;;;;;;;9.93;4.70;;;23.30;28.90;;;;;;6159203;28;81598;-62
2021/01/31 09:53:33;;;;;;;8.10;4.70;;;23.40;29.30;;;;;;6171917;27;80247;-61
2021/01/31 09:56:34;;;;;;;9.23;5.47;;;23.40;29.50;;;;;;6164163;28;80520;-63
2021/01/31 09:59:34;;;;;;;10.93;4.97;;;23.40;29.00;;;;;;6152938;27;81577;-63
2021/01/31 10:02:35;;;;;;;13.75;5.55;;;23.40;28.90;;;;;;6165395;28;81456;-64
2021/01/31 10:05:36;;;;;;;15.88;5.53;;;23.40;28.90;;;;;;6140463;27;80854;-66
2021/01/31 10:08:36;;;;;;;9.00;4.88;;;23.40;29.20;;;;;;6150080;27;80511;-64
2021/01/31 10:11:38;;;;;;;12.77;5.28;;;23.50;28.90;;;;;;6173642;27;80679;-64
2021/01/31 10:14:39;;;;;;;13.95;5.40;;;23.60;28.50;;;;;;6174871;28;81888;-63
2021/01/31 10:17:39;;;;;;;13.50;5.22;;;23.70;28.50;;;;;;6179480;27;80890;-63
2021/01/31 10:20:40;;;;;;;9.90;4.68;;;23.70;28.50;;;;;;6180517;27;80527;-62
2021/01/31 10:23:40;;;;;;;10.18;4.38;;;23.70;28.30;;;;;;6171108;28;80715;-61
2021/01/31 10:26:41;;;;;;;12.95;4.60;;;23.70;28.60;;;;;;6173830;27;81590;-62
2021/01/31 10:29:41;;;;;;;9.77;5.03;;;23.70;28.80;;;;;;6156715;27;80429;-61
2021/01/31 10:32:42;;;;;;;11.77;5.22;;;23.70;28.00;;;;;;6140513;28;80685;-62
2021/01/31 10:35:42;;;;;;;9.75;4.80;;;23.70;28.40;;;;;;6152813;27;80935;-61
2021/01/31 10:38:43;;;;;;;8.43;4.43;;;23.70;28.20;;;;;;6149656;28;81596;-64
2021/01/31 10:41:44;;;;;;;10.95;4.78;;;23.70;28.40;;;;;;6155955;27;80692;-62
2021/01/31 10:44:44;;;;;;;12.25;4.55;;;23.70;28.80;;;;;;6171481;27;80633;-62
2021/01/31 10:47:45;;;;;;;12.00;5.07;;;23.70;29.60;;;;;;6143608;28;82610;-62
2021/01/31 10:50:46;;;;;;;17.10;4.97;;;23.80;29.60;;;;;;6154890;28;80594;-63
2021/01/31 10:53:46;;;;;;;13.93;4.95;;;23.80;30.00;;;;;;6142962;28;81375;-62
2021/01/31 10:56:47;;;;;;;15.55;5.03;;;23.80;30.30;;;;;;6151399;28;83029;-63
2021/01/31 10:59:47;;;;;;;10.93;4.55;;;23.80;29.30;;;;;;6158490;27;80717;-63
2021/01/31 11:02:48;;;;;;;13.75;5.40;;;23.80;29.20;;;;;;6166712;28;80526;-62
2021/01/31 11:05:48;;;;;;;11.85;5.05;;;23.80;29.00;;;;;;6155615;27;80596;-61
2021/01/31 11:08:49;;;;;;;10.15;5.22;;;23.80;29.60;;;;;;6151875;28;80866;-61
2021/01/31 11:11:50;;;;;;;10.02;4.65;;;23.80;29.20;;;;;;6155365;27;81665;-61
2021/01/31 11:14:50;;;;;;;7.78;4.38;;;23.90;29.10;;;;;;6160982;27;80729;-61
2021/01/31 11:17:51;;;;;;;8.95;5.18;;;24.00;28.90;;;;;;6163665;27;80663;-61
2021/01/31 11:20:51;;;;;;;11.18;5.07;;;24.00;28.30;;;;;;6173462;27;80653;-62
2021/01/31 11:23:54;;;;;;;7.45;4.35;;;24.00;28.20;;;;;;6153938;27;82619;-62
2021/01/31 11:26:54;;;;;;;9.30;4.90;;;24.00;27.70;;;;;;6160467;27;81572;-61
2021/01/31 11:29:55;;;;;;;10.80;4.68;;;24.10;27.30;;;;;;6171836;27;80947;-62
2021/01/31 11:32:56;;;;;;;9.00;5.38;;;24.20;27.30;;;;;;6154569;28;87006;-61
2021/01/31 11:35:56;;;;;;;12.63;5.13;;;24.20;27.10;;;;;;6153794;27;81284;-62
2021/01/31 11:38:59;;;;;;;10.70;5.55;;;24.20;27.20;;;;;;6176892;27;82324;-62
2021/01/31 11:42:00;;;;;;;10.23;4.95;;;24.30;26.90;;;;;;6179107;27;80924;-62
2021/01/31 11:45:01;;;;;;;23.38;5.45;;;24.30;26.90;;;;;;6177714;28;80602;-62
2021/01/31 11:48:01;;;;;;;11.32;5.40;;;24.40;27.10;;;;;;6178857;27;80501;-63
2021/01/31 11:51:02;;;;;;;7.88;4.80;;;24.50;27.30;;;;;;6179833;27;80694;-63
2021/01/31 11:54:02;;;;;;;9.75;5.75;;;24.50;27.40;;;;;;6171266;27;80469;-62
2021/01/31 11:57:03;;;;;;;8.40;5.20;;;24.50;27.30;;;;;;6165151;28;81518;-63
2021/01/31 12:00:04;;;;;;;11.40;5.80;;;24.50;26.80;;;;;;6171102;27;81292;-63
2021/01/31 12:03:12;;;;;;;13.73;5.30;;;24.50;26.60;;;;;;6151353;27;81024;-61
2021/01/31 12:06:13;;;;;;;10.52;4.90;;;24.50;26.70;;;;;;6154320;27;81350;-62
2021/01/31 12:09:13;;;;;;;11.05;5.78;;;24.50;26.40;;;;;;6164417;28;81626;-62
2021/01/31 12:12:14;;;;;;;11.80;6.00;;;24.50;25.90;;;;;;6177301;27;80978;-61
2021/01/31 12:15:14;;;;;;;14.18;5.85;;;24.50;25.90;;;;;;6167172;28;80684;-61
2021/01/31 12:18:15;;;;;;;16.00;5.82;;;24.50;25.50;;;;;;6155694;27;80778;-60
2021/01/31 12:21:16;;;;;;;12.20;6.18;;;24.50;25.90;;;;;;6156490;28;82249;-64
2021/01/31 12:24:16;;;;;;;12.75;6.60;;;24.50;25.10;;;;;;6160292;27;82653;-62
2021/01/31 12:27:17;;;;;;;11.38;6.38;;;24.50;25.50;;;;;;6160444;28;80715;-61
2021/01/31 12:30:17;;;;;;;14.60;6.50;;;24.40;25.60;;;;;;6180384;27;80907;-59
2021/01/31 12:33:18;;;;;;;13.02;7.05;;;24.40;25.40;;;;;;6175031;27;80338;-61
2021/01/31 12:36:18;;;;;;;11.77;7.13;;;24.50;25.20;;;;;;6176620;27;80538;-62
2021/01/31 12:39:19;;;;;;;12.40;6.63;;;24.50;25.50;;;;;;6157886;27;81665;-61
2021/01/31 12:42:20;;;;;;;12.15;7.30;;;24.50;25.40;;;;;;6152993;27;80385;-61
2021/01/31 12:45:20;;;;;;;12.70;6.63;;;24.50;25.60;;;;;;6153390;28;80837;-60
2021/01/31 12:48:21;;;;;;;13.63;7.28;;;24.60;25.40;;;;;;6162715;27;80635;-60
2021/01/31 12:51:21;;;;;;;13.77;7.25;;;24.50;25.40;;;;;;6163850;28;81384;-63
2021/01/31 12:54:23;;;;;;;12.45;6.88;;;24.50;25.00;;;;;;6145769;27;80586;-63
2021/01/31 12:57:24;;;;;;;12.93;7.47;;;24.40;24.90;;;;;;6158685;27;80350;-62
2021/01/31 13:00:25;;;;;;;10.77;6.57;;;24.50;25.30;;;;;;6159844;27;81536;-64
2021/01/31 13:03:25;;;;;;;12.43;7.05;;;24.40;24.70;;;;;;6151491;28;82108;-64
2021/01/31 13:06:26;;;;;;;11.15;6.53;;;24.40;24.50;;;;;;6164493;28;81740;-63
2021/01/31 13:09:30;;;;;;;16.48;7.25;;;24.50;24.40;;;;;;6141055;27;83213;-64
2021/01/31 13:12:30;;;;;;;12.80;7.05;;;24.50;24.60;;;;;;6147965;28;80709;-63
2021/01/31 13:15:31;;;;;;;14.50;7.68;;;24.60;24.30;;;;;;6159518;27;81589;-62
2021/01/31 13:18:32;;;;;;;11.55;6.82;;;24.60;24.40;;;;;;6162352;28;82048;-62
2021/01/31 13:21:32;;;;;;;14.55;8.38;;;24.60;24.40;;;;;;6158159;27;80978;-63
2021/01/31 13:24:33;;;;;;;14.20;7.57;;;24.70;24.30;;;;;;6147901;27;80681;-63
2021/01/31 13:27:34;;;;;;;14.30;8.20;;;24.60;23.90;;;;;;6151463;27;83453;-63
2021/01/31 13:30:36;;;;;;;12.98;7.43;;;24.60;23.30;;;;;;6166994;27;80962;-67
2021/01/31 13:33:37;;;;;;;15.27;7.93;;;24.50;23.20;;;;;;6162846;27;80605;-68
2021/01/31 13:36:37;;;;;;;22.00;9.05;;;24.40;23.60;;;;;;6152529;28;81275;-67
2021/01/31 13:39:38;;;;;;;15.85;9.25;;;24.30;23.80;;;;;;6150827;27;80459;-66
2021/01/31 13:42:39;;;;;;;14.98;7.88;;;24.30;23.70;;;;;;6151984;28;81491;-65
2021/01/31 13:45:40;;;;;;;15.18;8.40;;;24.40;23.40;;;;;;6154559;28;81102;-66
2021/01/31 13:48:40;;;;;;;12.50;7.05;;;24.40;23.20;;;;;;6163054;27;81237;-65
2021/01/31 13:51:41;;;;;;;14.82;8.13;;;24.40;23.40;;;;;;6183735;28;80892;-65
2021/01/31 13:54:41;;;;;;;18.67;9.02;;;24.40;23.30;;;;;;6162213;27;80777;-64
2021/01/31 13:57:42;;;;;;;12.38;7.80;;;24.30;23.20;;;;;;6154846;27;80497;-64
2021/01/31 14:00:42;;;;;;;18.00;7.95;;;24.30;23.30;;;;;;6155234;27;83386;-64
2021/01/31 14:03:43;;;;;;;15.70;8.45;;;24.30;23.10;;;;;;6171454;27;80386;-65
2021/01/31 14:06:44;;;;;;;13.30;7.82;;;24.30;23.40;;;;;;6151852;28;82241;-67
2021/01/31 14:09:44;;;;;;;13.02;7.68;;;24.30;23.10;;;;;;6155516;27;81397;-66
2021/01/31 14:12:45;;;;;;;16.13;8.18;;;24.20;23.40;;;;;;6168111;28;81438;-65
2021/01/31 14:15:45;;;;;;;13.38;7.45;;;24.20;23.40;;;;;;6175866;27;80823;-65
2021/01/31 14:18:46;;;;;;;12.32;7.35;;;24.20;23.50;;;;;;6170234;27;81504;-63
2021/01/31 14:21:46;;;;;;;15.43;8.80;;;24.10;23.20;;;;;;6155769;28;80402;-63
2021/01/31 14:24:47;;;;;;;16.52;7.72;;;24.10;23.30;;;;;;6155864;28;80537;-63
2021/01/31 14:27:48;;;;;;;17.40;8.48;;;24.10;23.30;;;;;;6155413;27;81017;-64
2021/01/31 14:30:48;;;;;;;12.73;7.85;;;24.20;23.70;;;;;;6152766;28;80833;-66
2021/01/31 14:33:49;;;;;;;15.77;8.98;;;24.20;24.00;;;;;;6162390;27;82161;-65
2021/01/31 14:36:49;;;;;;;15.75;9.35;;;24.30;23.60;;;;;;6163089;27;80304;-64
2021/01/31 14:39:50;;;;;;;18.15;9.13;;;24.40;23.60;;;;;;6155042;27;80893;-65
2021/01/31 14:42:50;;;;;;;18.15;9.40;;;24.40;23.40;;;;;;6164976;28;81030;-64
2021/01/31 14:45:51;;;;;;;13.90;8.25;;;24.40;23.60;;;;;;6157923;27;80295;-65
2021/01/31 14:48:51;;;;;;;14.00;8.43;;;24.30;23.90;;;;;;6152164;27;80474;-64
2021/01/31 14:51:52;;;;;;;14.50;8.00;;;24.30;24.30;;;;;;6153837;27;81635;-68
2021/01/31 14:54:53;;;;;;;13.38;8.77;;;24.30;26.00;;;;;;6153410;28;81456;-65
2021/01/31 14:57:53;;;;;;;17.73;10.00;;;24.30;24.70;;;;;;6143049;28;82221;-65
2021/01/31 15:00:55;;;;;;;14.27;8.85;;;24.30;24.90;;;;;;6161460;27;83196;-63
2021/01/31 15:03:56;;;;;;;16.88;9.68;;;24.20;26.20;;;;;;6179706;27;83466;-61
2021/01/31 15:06:57;;;;;;;15.27;8.30;;;24.30;26.20;;;;;;6162761;27;81245;-62
2021/01/31 15:09:57;;;;;;;17.52;9.48;;;24.20;25.30;;;;;;6136945;27;82147;-62
2021/01/31 15:12:58;;;;;;;16.73;8.65;;;24.20;25.60;;;;;;6158112;28;81924;-61
2021/01/31 15:15:59;;;;;;;14.80;8.57;;;24.10;25.30;;;;;;6165699;27;81621;-62
2021/01/31 15:18:59;;;;;;;21.88;11.38;;;24.10;25.60;;;;;;6156498;28;80531;-62
2021/01/31 15:22:00;;;;;;;20.33;10.45;;;24.00;25.80;;;;;;6172419;28;83014;-61
2021/01/31 15:25:01;;;;;;;22.30;11.10;;;24.00;26.30;;;;;;6162071;27;83479;-62
2021/01/31 15:28:01;;;;;;;20.08;10.00;;;24.00;26.20;;;;;;6151845;27;83585;-63
2021/01/31 15:31:02;;;;;;;16.75;9.93;;;23.90;26.40;;;;;;6148726;27;83821;-63